Time;durP1;ratioP1;P1;durP2;ratioP2;P2;SDS_P1;SDS_P2;PMS_P1;PMS_P2;Temp;Humidity;BMP_temperature;BMP_pressure;BME280_temperature;BME280_humidity;BME280_pressure;Samples;Min_cycle;Max_cycle;Signal;HPM_P1;HPM_P2
2022/06/23 00:00:18;;;;;;;;;;;;;;;;;;1031686;28;3789;-49
2022/06/23 00:01:13;;;;;;;;;;;;;;;;;;1031821;28;4264;-48
2022/06/23 00:01:49;;;;;;;;;;;;;;;;;;1032701;28;2461;-51
2022/06/23 00:02:21;;;;;;;;;;;;;;;;;;1032810;28;3846;-48
2022/06/23 00:02:52;;;;;;;;;;;;;;;;;;1034046;28;1596;-50
2022/06/23 00:03:23;;;;;;;;;;;;;;;;;;1032333;28;4339;-50
2022/06/23 00:03:54;;;;;;;;;;;;;;;;;;1034370;28;1808;-51
2022/06/23 00:04:27;;;;;;;;;;;;;;;;;;1032905;28;3809;-47
2022/06/23 00:04:58;;;;;;;;;;;;;;;;;;1027427;28;3781;-48
2022/06/23 00:05:34;;;;;;;;;;;;;;;;;;1029017;28;2944;-50
2022/06/23 00:06:07;;;;;;;;;;;;;;;;;;1032783;28;3841;-49
2022/06/23 00:06:37;;;;;;;;;;;;;;;;;;1031758;28;2919;-47
2022/06/23 00:07:17;;;;;;;;;;;;;;;;;;1033144;28;4762;-50
2022/06/23 00:07:50;;;;;;;;;;;;;;;;;;1033568;28;1628;-49
2022/06/23 00:08:20;;;;;;;;;;;;;;;;;;1031999;28;4247;-51
2022/06/23 00:08:51;;;;;;;;;;;;;;;;;;1030656;28;4197;-48
2022/06/23 00:09:29;;;;;;;;;;;;;;;;;;1031683;28;4625;-51
2022/06/23 00:10:00;;;;;;;;;;;;;;;;;;1031562;28;4215;-52
2022/06/23 00:10:36;;;;;;;;;;;;;;;;;;1033919;28;2063;-46
2022/06/23 00:11:17;;;;;;;;;;;;;;;;;;1032559;28;3771;-49
2022/06/23 00:11:49;;;;;;;;;;;;;;;;;;1030228;28;3799;-47
2022/06/23 00:12:19;;;;;;;;;;;;;;;;;;1031854;28;3738;-52
2022/06/23 00:12:50;;;;;;;;;;;;;;;;;;1032617;28;3348;-50
2022/06/23 00:13:33;;;;;;;;;;;;;;;;;;1032317;28;4362;-48
2022/06/23 00:14:11;;;;;;;;;;;;;;;;;;1032035;28;4182;-50
2022/06/23 00:14:41;;;;;;;;;;;;;;;;;;1033248;28;1871;-50
2022/06/23 00:15:14;;;;;;;;;;;;;;;;;;1031025;28;3774;-47
2022/06/23 00:15:45;;;;;;;;;;;;;;;;;;1032100;28;4106;-48
2022/06/23 00:16:23;;;;;;;;;;;;;;;;;;1033370;28;3755;-47
2022/06/23 00:16:53;;;;;;;;;;;;;;;;;;1032184;28;3188;-49
2022/06/23 00:17:26;;;;;;;;;;;;;;;;;;1033407;28;3726;-50
2022/06/23 00:17:58;;;;;;;;;;;;;;;;;;1032322;28;4217;-49
2022/06/23 00:18:32;;;;;;;;;;;;;;;;;;1033124;28;2499;-49
2022/06/23 00:19:02;;;;;;;;;;;;;;;;;;1034325;28;3780;-50
2022/06/23 00:19:33;;;;;;;;;;;;;;;;;;1033836;28;3196;-52
2022/06/23 00:20:05;;;;;;;;;;;;;;;;;;1035201;28;3764;-50
2022/06/23 00:20:44;;;;;;;;;;;;;;;;;;1032627;28;2028;-50
2022/06/23 00:21:15;;;;;;;;;;;;;;;;;;1030760;28;3760;-47
2022/06/23 00:21:50;;;;;;;;;;;;;;;;;;1032540;28;2705;-48
2022/06/23 00:22:22;;;;;;;;;;;;;;;;;;1033240;28;4169;-49
2022/06/23 00:22:54;;;;;;;;;;;;;;;;;;1033716;28;1462;-50
2022/06/23 00:23:27;;;;;;;;;;;;;;;;;;1029689;28;3900;-48
2022/06/23 00:24:00;;;;;;;;;;;;;;;;;;1032458;28;4195;-48
2022/06/23 00:24:31;;;;;;;;;;;;;;;;;;1032995;28;3765;-50
2022/06/23 00:25:04;;;;;;;;;;;;;;;;;;1030451;28;4236;-48
2022/06/23 00:25:39;;;;;;;;;;;;;;;;;;1032722;28;1949;-50
2022/06/23 00:26:14;;;;;;;;;;;;;;;;;;1032505;28;4372;-48
2022/06/23 00:26:44;;;;;;;;;;;;;;;;;;1032401;28;3698;-48
2022/06/23 00:27:16;;;;;;;;;;;;;;;;;;1032661;28;3914;-49
2022/06/23 00:27:46;;;;;;;;;;;;;;;;;;1034343;28;1940;-48
2022/06/23 00:28:17;;;;;;;;;;;;;;;;;;1032718;28;3842;-52
2022/06/23 00:28:50;;;;;;;;;;;;;;;;;;1033844;28;1813;-50
2022/06/23 00:29:21;;;;;;;;;;;;;;;;;;1032647;28;3826;-51
2022/06/23 00:29:52;;;;;;;;;;;;;;;;;;1034089;28;1760;-50
2022/06/23 00:30:25;;;;;;;;;;;;;;;;;;1030986;28;3810;-50
2022/06/23 00:31:06;;;;;;;;;;;;;;;;;;1033591;28;3486;-52
2022/06/23 00:31:57;;;;;;;;;;;;;;;;;;1033465;28;3766;-47
2022/06/23 00:32:28;;;;;;;;;;;;;;;;;;1031691;28;4043;-48
2022/06/23 00:33:04;;;;;;;;;;;;;;;;;;1033193;28;3947;-48
2022/06/23 00:33:42;;;;;;;;;;;;;;;;;;1034147;28;1681;-51
2022/06/23 00:34:14;;;;;;;;;;;;;;;;;;1032157;28;3793;-49
2022/06/23 00:34:52;;;;;;;;;;;;;;;;;;1033290;28;2000;-49
2022/06/23 00:35:22;;;;;;;;;;;;;;;;;;1030570;28;3816;-49
2022/06/23 00:35:54;;;;;;;;;;;;;;;;;;1031669;28;3966;-50
2022/06/23 00:36:43;;;;;;;;;;;;;;;;;;1031754;28;3740;-49
2022/06/23 00:37:14;;;;;;;;;;;;;;;;;;1031914;28;4198;-51
2022/06/23 00:37:47;;;;;;;;;;;;;;;;;;1033109;28;1739;-51
2022/06/23 00:38:18;;;;;;;;;;;;;;;;;;1032256;28;4047;-48
2022/06/23 00:38:48;;;;;;;;;;;;;;;;;;1033241;28;1740;-52
2022/06/23 00:39:20;;;;;;;;;;;;;;;;;;1031406;28;4173;-50
2022/06/23 00:39:53;;;;;;;;;;;;;;;;;;1031803;28;3794;-48
2022/06/23 00:40:24;;;;;;;;;;;;;;;;;;1029458;28;3751;-47
2022/06/23 00:40:55;;;;;;;;;;;;;;;;;;1033034;28;3876;-50
2022/06/23 00:41:33;;;;;;;;;;;;;;;;;;1032854;28;4167;-50
2022/06/23 00:42:06;;;;;;;;;;;;;;;;;;1031835;28;3965;-48
2022/06/23 00:42:51;;;;;;;;;;;;;;;;;;1031142;28;2786;-52
2022/06/23 00:43:22;;;;;;;;;;;;;;;;;;1031440;28;3793;-50
2022/06/23 00:43:52;;;;;;;;;;;;;;;;;;1033356;28;3223;-51
2022/06/23 00:44:43;;;;;;;;;;;;;;;;;;1033772;28;4179;-47
2022/06/23 00:45:22;;;;;;;;;;;;;;;;;;1029276;28;4814;-48
2022/06/23 00:46:07;;;;;;;;;;;;;;;;;;1033738;28;1655;-47
2022/06/23 00:46:43;;;;;;;;;;;;;;;;;;1032719;28;3884;-48
2022/06/23 00:47:18;;;;;;;;;;;;;;;;;;1033138;28;4000;-48
2022/06/23 00:48:06;;;;;;;;;;;;;;;;;;1032341;28;3241;-51
2022/06/23 00:48:39;;;;;;;;;;;;;;;;;;1033582;28;3674;-48
2022/06/23 00:49:22;;;;;;;;;;;;;;;;;;1033184;28;3775;-50
2022/06/23 00:49:59;;;;;;;;;;;;;;;;;;1033153;28;2950;-52
2022/06/23 00:50:31;;;;;;;;;;;;;;;;;;1032926;28;4080;-49
2022/06/23 00:51:08;;;;;;;;;;;;;;;;;;1031967;28;4405;-49
2022/06/23 00:51:41;;;;;;;;;;;;;;;;;;1033632;28;1669;-48
2022/06/23 00:52:16;;;;;;;;;;;;;;;;;;1032792;28;3890;-49
2022/06/23 00:52:49;;;;;;;;;;;;;;;;;;1033852;28;2055;-49
2022/06/23 00:53:26;;;;;;;;;;;;;;;;;;1027576;28;3890;-48
2022/06/23 00:53:59;;;;;;;;;;;;;;;;;;1029323;28;4021;-49
2022/06/23 00:54:34;;;;;;;;;;;;;;;;;;1033048;28;3480;-50
2022/06/23 00:55:10;;;;;;;;;;;;;;;;;;1030548;28;3889;-50
2022/06/23 00:55:40;;;;;;;;;;;;;;;;;;1032367;28;3774;-53
2022/06/23 00:56:20;;;;;;;;;;;;;;;;;;1037133;28;5125;-48
2022/06/23 00:56:53;;;;;;;;;;;;;;;;;;1035471;28;3555;-47
2022/06/23 00:57:31;;;;;;;;;;;;;;;;;;1036874;28;3850;-49
2022/06/23 00:58:05;;;;;;;;;;;;;;;;;;1032747;28;3826;-47
2022/06/23 00:58:54;;;;;;;;;;;;;;;;;;1030554;28;3735;-48
2022/06/23 00:59:32;;;;;;;;;;;;;;;;;;1032716;28;3751;-51
2022/06/23 01:00:07;;;;;;;;;;;;;;;;;;1032626;28;4234;-47
2022/06/23 01:00:47;;;;;;;;;;;;;;;;;;1034593;28;2763;-50
2022/06/23 01:01:30;;;;;;;;;;;;;;;;;;1037476;28;4200;-50
2022/06/23 01:02:19;;;;;;;;;;;;;;;;;;1036269;28;4812;-49
2022/06/23 01:03:00;;;;;;;;;;;;;;;;;;1036247;28;3779;-52
2022/06/23 01:03:33;;;;;;;;;;;;;;;;;;1036748;28;3546;-53
2022/06/23 01:04:07;;;;;;;;;;;;;;;;;;1034238;28;3916;-49
2022/06/23 01:04:40;;;;;;;;;;;;;;;;;;1038117;28;1601;-47
2022/06/23 01:05:27;;;;;;;;;;;;;;;;;;1033747;28;3928;-50
2022/06/23 01:06:08;;;;;;;;;;;;;;;;;;1044773;28;3784;-48
2022/06/23 01:06:40;;;;;;;;;;;;;;;;;;1045139;28;1847;-50
2022/06/23 01:07:29;;;;;;;;;;;;;;;;;;1043644;28;3774;-52
2022/06/23 01:08:05;;;;;;;;;;;;;;;;;;1040116;28;3891;-48
2022/06/23 01:08:51;;;;;;;;;;;;;;;;;;1040664;28;2411;-50
2022/06/23 01:09:40;;;;;;;;;;;;;;;;;;1040004;28;4006;-52
2022/06/23 01:10:31;;;;;;;;;;;;;;;;;;1041875;28;3888;-53
2022/06/23 01:11:03;;;;;;;;;;;;;;;;;;1041172;28;3871;-49
2022/06/23 01:11:40;;;;;;;;;;;;;;;;;;1037760;28;1669;-49
2022/06/23 01:12:20;;;;;;;;;;;;;;;;;;1036238;28;3779;-48
2022/06/23 01:12:59;;;;;;;;;;;;;;;;;;1037401;28;1826;-47
2022/06/23 01:13:29;;;;;;;;;;;;;;;;;;1035532;28;3653;-51
2022/06/23 01:14:08;;;;;;;;;;;;;;;;;;1036623;28;3989;-50
2022/06/23 01:14:39;;;;;;;;;;;;;;;;;;1043751;28;3218;-48
2022/06/23 01:15:20;;;;;;;;;;;;;;;;;;1042006;28;4208;-51
2022/06/23 01:15:56;;;;;;;;;;;;;;;;;;1044872;28;2298;-50
2022/06/23 01:16:45;;;;;;;;;;;;;;;;;;1040373;28;3664;-49
2022/06/23 01:17:20;;;;;;;;;;;;;;;;;;1035341;28;4214;-53
2022/06/23 01:18:00;;;;;;;;;;;;;;;;;;1039282;28;1277;-49
2022/06/23 01:18:36;;;;;;;;;;;;;;;;;;1036395;28;5148;-50
2022/06/23 01:19:18;;;;;;;;;;;;;;;;;;1036030;28;3893;-50
2022/06/23 01:19:57;;;;;;;;;;;;;;;;;;1030361;28;1474;-50
2022/06/23 01:20:31;;;;;;;;;;;;;;;;;;1027903;28;4868;-52
2022/06/23 01:21:06;;;;;;;;;;;;;;;;;;1028492;28;3964;-50
2022/06/23 01:21:45;;;;;;;;;;;;;;;;;;1035788;28;2768;-52
2022/06/23 01:22:28;;;;;;;;;;;;;;;;;;1035777;28;4069;-49
2022/06/23 01:23:18;;;;;;;;;;;;;;;;;;1036880;28;3888;-47
2022/06/23 01:23:53;;;;;;;;;;;;;;;;;;1036905;28;2406;-47
2022/06/23 01:24:42;;;;;;;;;;;;;;;;;;1037700;28;4254;-49
2022/06/23 01:25:26;;;;;;;;;;;;;;;;;;1034309;28;3813;-48
2022/06/23 01:25:59;;;;;;;;;;;;;;;;;;1037851;28;3911;-49
2022/06/23 01:26:42;;;;;;;;;;;;;;;;;;1036422;28;3241;-48
2022/06/23 01:27:20;;;;;;;;;;;;;;;;;;1038255;28;3848;-48
2022/06/23 01:28:09;;;;;;;;;;;;;;;;;;1038026;28;1970;-47
2022/06/23 01:28:40;;;;;;;;;;;;;;;;;;1037734;28;3920;-49
2022/06/23 01:29:11;;;;;;;;;;;;;;;;;;1037886;28;4262;-53
2022/06/23 01:29:57;;;;;;;;;;;;;;;;;;1038604;28;1769;-48
2022/06/23 01:30:30;;;;;;;;;;;;;;;;;;1036124;28;3912;-49
2022/06/23 01:31:22;;;;;;;;;;;;;;;;;;1038190;28;4187;-52
2022/06/23 01:31:54;;;;;;;;;;;;;;;;;;1038172;28;1941;-51
2022/06/23 01:32:27;;;;;;;;;;;;;;;;;;1037656;28;3830;-48
2022/06/23 01:33:03;;;;;;;;;;;;;;;;;;1037363;28;4273;-47
2022/06/23 01:33:39;;;;;;;;;;;;;;;;;;1037328;28;3205;-48
2022/06/23 01:34:17;;;;;;;;;;;;;;;;;;1037211;28;3863;-48
2022/06/23 01:34:56;;;;;;;;;;;;;;;;;;1038174;28;2001;-48
2022/06/23 01:35:32;;;;;;;;;;;;;;;;;;1035897;28;3788;-49
2022/06/23 01:36:15;;;;;;;;;;;;;;;;;;1037015;28;3846;-48
2022/06/23 01:36:48;;;;;;;;;;;;;;;;;;1038285;28;1586;-52
2022/06/23 01:37:25;;;;;;;;;;;;;;;;;;1037396;28;3857;-51
2022/06/23 01:37:57;;;;;;;;;;;;;;;;;;1037029;28;2790;-52
2022/06/23 01:38:42;;;;;;;;;;;;;;;;;;1038473;28;3743;-50
2022/06/23 01:39:15;;;;;;;;;;;;;;;;;;1037112;28;3858;-52
2022/06/23 01:39:56;;;;;;;;;;;;;;;;;;1043189;28;3819;-49
2022/06/23 01:40:32;;;;;;;;;;;;;;;;;;1044528;28;3677;-51
2022/06/23 01:41:16;;;;;;;;;;;;;;;;;;1045609;28;3802;-47
2022/06/23 01:41:56;;;;;;;;;;;;;;;;;;1038433;28;1692;-51
2022/06/23 01:42:45;;;;;;;;;;;;;;;;;;1037186;28;3958;-49
2022/06/23 01:43:15;;;;;;;;;;;;;;;;;;1037147;28;3875;-50
2022/06/23 01:43:51;;;;;;;;;;;;;;;;;;1038523;28;1667;-49
2022/06/23 01:44:26;;;;;;;;;;;;;;;;;;1037056;28;3855;-51
2022/06/23 01:45:00;;;;;;;;;;;;;;;;;;1040162;28;3881;-48
2022/06/23 01:45:34;;;;;;;;;;;;;;;;;;1040180;28;2994;-51
2022/06/23 01:46:18;;;;;;;;;;;;;;;;;;1040328;28;3785;-49
2022/06/23 01:46:56;;;;;;;;;;;;;;;;;;1037968;28;3235;-50
2022/06/23 01:47:30;;;;;;;;;;;;;;;;;;1036956;28;3726;-48
2022/06/23 01:48:12;;;;;;;;;;;;;;;;;;1036814;28;3768;-48
2022/06/23 01:49:00;;;;;;;;;;;;;;;;;;1035975;28;3759;-49
2022/06/23 01:49:34;;;;;;;;;;;;;;;;;;1036893;28;3654;-50
2022/06/23 01:50:13;;;;;;;;;;;;;;;;;;1037530;28;3930;-48
2022/06/23 01:50:49;;;;;;;;;;;;;;;;;;1037977;28;2915;-51
2022/06/23 01:51:35;;;;;;;;;;;;;;;;;;1038161;28;3843;-49
2022/06/23 01:52:10;;;;;;;;;;;;;;;;;;1037936;28;3847;-47
2022/06/23 01:52:41;;;;;;;;;;;;;;;;;;1038658;28;2182;-48
2022/06/23 01:53:13;;;;;;;;;;;;;;;;;;1037180;28;3891;-48
2022/06/23 01:53:44;;;;;;;;;;;;;;;;;;1037722;28;2186;-47
2022/06/23 01:54:21;;;;;;;;;;;;;;;;;;1037452;28;3771;-50
2022/06/23 01:54:54;;;;;;;;;;;;;;;;;;1033500;28;4528;-49
2022/06/23 01:55:26;;;;;;;;;;;;;;;;;;1037166;28;3832;-49
2022/06/23 01:56:29;;;;;;;;;;;;;;;;;;1036916;28;3875;-51
2022/06/23 01:57:09;;;;;;;;;;;;;;;;;;1021059;28;3895;-50
2022/06/23 01:57:44;;;;;;;;;;;;;;;;;;1024933;28;3276;-49
2022/06/23 01:58:17;;;;;;;;;;;;;;;;;;1038624;28;4026;-50
2022/06/23 01:58:56;;;;;;;;;;;;;;;;;;1042111;28;4205;-50
2022/06/23 01:59:38;;;;;;;;;;;;;;;;;;1040056;28;3828;-49
2022/06/23 02:00:08;;;;;;;;;;;;;;;;;;1036365;28;3802;-47
2022/06/23 02:00:49;;;;;;;;;;;;;;;;;;1033979;28;1518;-50
2022/06/23 02:01:37;;;;;;;;;;;;;;;;;;1032353;28;3974;-49
2022/06/23 02:02:21;;;;;;;;;;;;;;;;;;1034537;28;5189;-51
2022/06/23 02:02:51;;;;;;;;;;;;;;;;;;1038061;28;3517;-51
2022/06/23 02:03:30;;;;;;;;;;;;;;;;;;1037899;28;3913;-49
2022/06/23 02:04:06;;;;;;;;;;;;;;;;;;1037483;28;3833;-51
2022/06/23 02:04:42;;;;;;;;;;;;;;;;;;1038086;28;3312;-48
2022/06/23 02:05:31;;;;;;;;;;;;;;;;;;1036306;28;3752;-54
2022/06/23 02:06:16;;;;;;;;;;;;;;;;;;1037453;28;4269;-51
2022/06/23 02:06:52;;;;;;;;;;;;;;;;;;1037858;28;2758;-52
2022/06/23 02:07:35;;;;;;;;;;;;;;;;;;1037504;28;3801;-49
2022/06/23 02:08:11;;;;;;;;;;;;;;;;;;1037796;28;3780;-52
2022/06/23 02:09:00;;;;;;;;;;;;;;;;;;1038110;28;3456;-48
2022/06/23 02:09:42;;;;;;;;;;;;;;;;;;1037158;28;3637;-50
2022/06/23 02:10:18;;;;;;;;;;;;;;;;;;1036150;28;3933;-47
2022/06/23 02:11:06;;;;;;;;;;;;;;;;;;1036812;28;3715;-51
2022/06/23 02:11:47;;;;;;;;;;;;;;;;;;1037852;28;3630;-51
2022/06/23 02:12:26;;;;;;;;;;;;;;;;;;1036386;28;3752;-49
2022/06/23 02:12:59;;;;;;;;;;;;;;;;;;1038152;28;3775;-47
2022/06/23 02:13:34;;;;;;;;;;;;;;;;;;1037977;28;1941;-52
2022/06/23 02:14:23;;;;;;;;;;;;;;;;;;1037388;28;4192;-49
2022/06/23 02:14:57;;;;;;;;;;;;;;;;;;1036865;28;3606;-48
2022/06/23 02:15:46;;;;;;;;;;;;;;;;;;1037225;28;3860;-47
2022/06/23 02:16:22;;;;;;;;;;;;;;;;;;1036768;28;3752;-51
2022/06/23 02:16:59;;;;;;;;;;;;;;;;;;1038855;28;1342;-51
2022/06/23 02:17:32;;;;;;;;;;;;;;;;;;1037533;28;3905;-49
2022/06/23 02:18:21;;;;;;;;;;;;;;;;;;1041163;28;3779;-50
2022/06/23 02:19:00;;;;;;;;;;;;;;;;;;1041078;28;2428;-49
2022/06/23 02:19:44;;;;;;;;;;;;;;;;;;1041004;28;3902;-52
2022/06/23 02:20:23;;;;;;;;;;;;;;;;;;1037380;28;3862;-50
2022/06/23 02:20:56;;;;;;;;;;;;;;;;;;1037850;28;3131;-52
2022/06/23 02:21:35;;;;;;;;;;;;;;;;;;1037481;28;3666;-48
2022/06/23 02:22:05;;;;;;;;;;;;;;;;;;1036767;28;3859;-50
2022/06/23 02:22:42;;;;;;;;;;;;;;;;;;1037930;28;1952;-48
2022/06/23 02:23:16;;;;;;;;;;;;;;;;;;1037829;28;4261;-52
2022/06/23 02:23:53;;;;;;;;;;;;;;;;;;1037833;28;2037;-48
2022/06/23 02:24:31;;;;;;;;;;;;;;;;;;1037482;28;3736;-54
2022/06/23 02:25:13;;;;;;;;;;;;;;;;;;1035027;28;4293;-49
2022/06/23 02:25:48;;;;;;;;;;;;;;;;;;1035791;28;3859;-50
2022/06/23 02:26:18;;;;;;;;;;;;;;;;;;1044526;28;3725;-51
2022/06/23 02:27:03;;;;;;;;;;;;;;;;;;1044796;28;4061;-50
2022/06/23 02:27:39;;;;;;;;;;;;;;;;;;1044810;28;3796;-49
2022/06/23 02:28:12;;;;;;;;;;;;;;;;;;1040318;28;3878;-49
2022/06/23 02:28:45;;;;;;;;;;;;;;;;;;1037920;28;1782;-48
2022/06/23 02:29:21;;;;;;;;;;;;;;;;;;1038065;28;3862;-47
2022/06/23 02:29:58;;;;;;;;;;;;;;;;;;1037604;28;2056;-53
2022/06/23 02:30:31;;;;;;;;;;;;;;;;;;1036685;28;3672;-49
2022/06/23 02:31:05;;;;;;;;;;;;;;;;;;1036771;28;3898;-49
2022/06/23 02:31:47;;;;;;;;;;;;;;;;;;1038093;28;2424;-47
2022/06/23 02:32:22;;;;;;;;;;;;;;;;;;1037185;28;3784;-49
2022/06/23 02:32:52;;;;;;;;;;;;;;;;;;1035606;28;3718;-49
2022/06/23 02:33:38;;;;;;;;;;;;;;;;;;1038224;28;3835;-49
2022/06/23 02:34:27;;;;;;;;;;;;;;;;;;1037759;28;3889;-49
2022/06/23 02:35:07;;;;;;;;;;;;;;;;;;1037321;28;3905;-49
2022/06/23 02:35:42;;;;;;;;;;;;;;;;;;1037631;28;1951;-49
2022/06/23 02:36:22;;;;;;;;;;;;;;;;;;1036638;28;3787;-48
2022/06/23 02:37:27;;;;;;;;;;;;;;;;;;1037099;28;2127;-47
2022/06/23 02:38:12;;;;;;;;;;;;;;;;;;1036959;28;4675;-52
2022/06/23 02:38:45;;;;;;;;;;;;;;;;;;1037398;28;2830;-49
2022/06/23 02:39:18;;;;;;;;;;;;;;;;;;1036604;28;3784;-50
2022/06/23 02:39:50;;;;;;;;;;;;;;;;;;1037444;28;3037;-50
2022/06/23 02:40:47;;;;;;;;;;;;;;;;;;1035175;28;3774;-50
2022/06/23 02:41:21;;;;;;;;;;;;;;;;;;1037581;28;3836;-50
2022/06/23 02:41:55;;;;;;;;;;;;;;;;;;1037516;28;1587;-50
2022/06/23 02:42:28;;;;;;;;;;;;;;;;;;1037259;28;4456;-53
2022/06/23 02:43:02;;;;;;;;;;;;;;;;;;1036399;28;3933;-50
2022/06/23 02:43:41;;;;;;;;;;;;;;;;;;1037822;28;4081;-48
2022/06/23 02:44:18;;;;;;;;;;;;;;;;;;1037935;28;3811;-50
2022/06/23 02:44:59;;;;;;;;;;;;;;;;;;1038634;28;1682;-49
2022/06/23 02:45:44;;;;;;;;;;;;;;;;;;1036330;28;3736;-49
2022/06/23 02:46:34;;;;;;;;;;;;;;;;;;1035105;28;3758;-49
2022/06/23 02:47:07;;;;;;;;;;;;;;;;;;1035659;28;4154;-52
2022/06/23 02:47:47;;;;;;;;;;;;;;;;;;1040505;28;3471;-50
2022/06/23 02:48:24;;;;;;;;;;;;;;;;;;1039305;28;3978;-47
2022/06/23 02:49:14;;;;;;;;;;;;;;;;;;1041477;28;1805;-47
2022/06/23 02:49:44;;;;;;;;;;;;;;;;;;1037516;28;3682;-47
2022/06/23 02:50:30;;;;;;;;;;;;;;;;;;1038013;28;3914;-52
2022/06/23 02:51:19;;;;;;;;;;;;;;;;;;1037270;28;3823;-48
2022/06/23 02:51:58;;;;;;;;;;;;;;;;;;1036677;28;2784;-51
2022/06/23 02:52:43;;;;;;;;;;;;;;;;;;1038392;28;3774;-52
2022/06/23 02:53:19;;;;;;;;;;;;;;;;;;1036247;28;3979;-52
2022/06/23 02:54:01;;;;;;;;;;;;;;;;;;1037649;28;1767;-48
2022/06/23 02:54:37;;;;;;;;;;;;;;;;;;1037614;28;5154;-49
2022/06/23 02:55:26;;;;;;;;;;;;;;;;;;1037523;28;3848;-49
2022/06/23 02:56:17;;;;;;;;;;;;;;;;;;1029775;28;4252;-48
2022/06/23 02:56:47;;;;;;;;;;;;;;;;;;1034192;28;1668;-49
2022/06/23 02:57:36;;;;;;;;;;;;;;;;;;1031888;28;3792;-50
2022/06/23 02:58:10;;;;;;;;;;;;;;;;;;1037816;28;3916;-48
2022/06/23 02:58:52;;;;;;;;;;;;;;;;;;1038267;28;1916;-46
2022/06/23 02:59:37;;;;;;;;;;;;;;;;;;1038020;28;3880;-50
2022/06/23 03:00:26;;;;;;;;;;;;;;;;;;1036734;28;3791;-48
2022/06/23 03:01:09;;;;;;;;;;;;;;;;;;1037384;28;3791;-49
2022/06/23 03:01:51;;;;;;;;;;;;;;;;;;1042196;28;2039;-52
2022/06/23 03:02:37;;;;;;;;;;;;;;;;;;1039816;28;3657;-51
2022/06/23 03:03:10;;;;;;;;;;;;;;;;;;1041268;28;4210;-50
2022/06/23 03:03:45;;;;;;;;;;;;;;;;;;1042139;28;2222;-49
2022/06/23 03:04:23;;;;;;;;;;;;;;;;;;1042164;28;4289;-48
2022/06/23 03:04:57;;;;;;;;;;;;;;;;;;1040734;28;3842;-51
2022/06/23 03:05:45;;;;;;;;;;;;;;;;;;1041532;28;3996;-51
2022/06/23 03:06:16;;;;;;;;;;;;;;;;;;1043681;28;4044;-46
2022/06/23 03:06:58;;;;;;;;;;;;;;;;;;1041387;28;2101;-50
2022/06/23 03:07:36;;;;;;;;;;;;;;;;;;1041767;28;3758;-49
2022/06/23 03:08:12;;;;;;;;;;;;;;;;;;1038541;28;3930;-48
2022/06/23 03:08:59;;;;;;;;;;;;;;;;;;1040407;28;2120;-51
2022/06/23 03:09:35;;;;;;;;;;;;;;;;;;1041468;28;3793;-49
2022/06/23 03:10:26;;;;;;;;;;;;;;;;;;1040501;28;3879;-51
2022/06/23 03:10:56;;;;;;;;;;;;;;;;;;1041024;28;3788;-51
2022/06/23 03:11:54;;;;;;;;;;;;;;;;;;1040325;28;3849;-51
2022/06/23 03:12:34;;;;;;;;;;;;;;;;;;1041573;28;3824;-46
2022/06/23 03:13:09;;;;;;;;;;;;;;;;;;1041331;28;3783;-47
2022/06/23 03:13:42;;;;;;;;;;;;;;;;;;1042209;28;1593;-47
2022/06/23 03:14:19;;;;;;;;;;;;;;;;;;1039126;28;4223;-51
2022/06/23 03:15:01;;;;;;;;;;;;;;;;;;1041117;28;2819;-50
2022/06/23 03:15:35;;;;;;;;;;;;;;;;;;1041524;28;3648;-49
2022/06/23 03:16:09;;;;;;;;;;;;;;;;;;1039762;28;4200;-51
2022/06/23 03:16:43;;;;;;;;;;;;;;;;;;1041339;28;3101;-50
2022/06/23 03:17:37;;;;;;;;;;;;;;;;;;1039155;28;4565;-48
2022/06/23 03:18:10;;;;;;;;;;;;;;;;;;1041235;28;4278;-47
2022/06/23 03:18:40;;;;;;;;;;;;;;;;;;1041883;28;2901;-51
2022/06/23 03:19:14;;;;;;;;;;;;;;;;;;1041200;28;4212;-47
2022/06/23 03:19:47;;;;;;;;;;;;;;;;;;1042316;28;2081;-48
2022/06/23 03:20:37;;;;;;;;;;;;;;;;;;1035916;28;3785;-50
2022/06/23 03:21:13;;;;;;;;;;;;;;;;;;1037136;28;3864;-52
2022/06/23 03:21:46;;;;;;;;;;;;;;;;;;1037363;28;2729;-48
2022/06/23 03:22:22;;;;;;;;;;;;;;;;;;1039837;28;4057;-49
2022/06/23 03:22:55;;;;;;;;;;;;;;;;;;1040875;28;3140;-50
2022/06/23 03:23:30;;;;;;;;;;;;;;;;;;1040367;28;3719;-51
2022/06/23 03:24:08;;;;;;;;;;;;;;;;;;1040469;28;3872;-53
2022/06/23 03:24:47;;;;;;;;;;;;;;;;;;1036620;28;3791;-48
2022/06/23 03:25:24;;;;;;;;;;;;;;;;;;1033175;28;3894;-51
2022/06/23 03:26:09;;;;;;;;;;;;;;;;;;1036157;28;3852;-47
2022/06/23 03:26:58;;;;;;;;;;;;;;;;;;1039359;28;3765;-53
2022/06/23 03:27:30;;;;;;;;;;;;;;;;;;1041633;28;3767;-49
2022/06/23 03:28:08;;;;;;;;;;;;;;;;;;1036225;28;3864;-50
2022/06/23 03:28:59;;;;;;;;;;;;;;;;;;1037812;28;1800;-49
2022/06/23 03:29:38;;;;;;;;;;;;;;;;;;1036885;28;3802;-48
2022/06/23 03:30:29;;;;;;;;;;;;;;;;;;1040582;28;4211;-52
2022/06/23 03:31:00;;;;;;;;;;;;;;;;;;1040827;28;3852;-47
2022/06/23 03:31:41;;;;;;;;;;;;;;;;;;1041645;28;1868;-52
2022/06/23 03:32:20;;;;;;;;;;;;;;;;;;1039742;28;3859;-50
2022/06/23 03:32:56;;;;;;;;;;;;;;;;;;1041872;28;1636;-48
2022/06/23 03:33:39;;;;;;;;;;;;;;;;;;1041585;28;3664;-47
2022/06/23 03:34:23;;;;;;;;;;;;;;;;;;1036916;28;4270;-47
2022/06/23 03:34:56;;;;;;;;;;;;;;;;;;1037430;28;1926;-48
2022/06/23 03:35:31;;;;;;;;;;;;;;;;;;1034764;28;3780;-49
2022/06/23 03:36:12;;;;;;;;;;;;;;;;;;1038890;28;3779;-49
2022/06/23 03:36:49;;;;;;;;;;;;;;;;;;1040353;28;2723;-53
2022/06/23 03:37:24;;;;;;;;;;;;;;;;;;1041505;28;3872;-48
2022/06/23 03:37:55;;;;;;;;;;;;;;;;;;1036672;28;2219;-48
2022/06/23 03:42:03;;;;;;;;;;;;;;;;;;1039952;28;3861;-51
2022/06/23 03:42:37;;;;;;;;;;;;;;;;;;1042084;28;1974;-48
2022/06/23 03:43:31;;;;;;;;;;;;;;;;;;1039608;28;3876;-49
2022/06/23 03:44:05;;;;;;;;;;;;;;;;;;1037549;28;3871;-50
2022/06/23 03:44:45;;;;;;;;;;;;;;;;;;1042097;28;1631;-53
2022/06/23 03:45:15;;;;;;;;;;;;;;;;;;1040831;28;3748;-51
2022/06/23 03:45:48;;;;;;;;;;;;;;;;;;1041603;28;3628;-48
2022/06/23 03:46:26;;;;;;;;;;;;;;;;;;1035681;28;3867;-49
2022/06/23 03:46:59;;;;;;;;;;;;;;;;;;1034979;28;3813;-50
2022/06/23 03:47:49;;;;;;;;;;;;;;;;;;1035875;28;2548;-49
2022/06/23 03:48:26;;;;;;;;;;;;;;;;;;1041477;28;4188;-50
2022/06/23 03:49:00;;;;;;;;;;;;;;;;;;1041431;28;3875;-48
2022/06/23 03:49:40;;;;;;;;;;;;;;;;;;1042550;28;1631;-48
2022/06/23 03:50:19;;;;;;;;;;;;;;;;;;1035778;28;4110;-47
2022/06/23 03:50:53;;;;;;;;;;;;;;;;;;1033783;28;1674;-49
2022/06/23 03:51:23;;;;;;;;;;;;;;;;;;1032846;28;3758;-49
2022/06/23 03:51:58;;;;;;;;;;;;;;;;;;1034989;28;2619;-48
2022/06/23 03:52:53;;;;;;;;;;;;;;;;;;1034922;28;4172;-47
2022/06/23 03:53:35;;;;;;;;;;;;;;;;;;1028347;28;4113;-48
2022/06/23 03:54:10;;;;;;;;;;;;;;;;;;1036337;28;3796;-49
2022/06/23 03:54:50;;;;;;;;;;;;;;;;;;1037351;28;1710;-49
2022/06/23 03:55:26;;;;;;;;;;;;;;;;;;1036677;28;3882;-47
2022/06/23 03:55:59;;;;;;;;;;;;;;;;;;1034309;28;4292;-49
2022/06/23 03:56:37;;;;;;;;;;;;;;;;;;1039248;28;1933;-52
2022/06/23 03:57:14;;;;;;;;;;;;;;;;;;1039305;28;3876;-48
2022/06/23 03:57:53;;;;;;;;;;;;;;;;;;1037541;28;1717;-49
2022/06/23 03:58:29;;;;;;;;;;;;;;;;;;1036956;28;4185;-48
2022/06/23 03:59:02;;;;;;;;;;;;;;;;;;1037312;28;3939;-48
2022/06/23 03:59:51;;;;;;;;;;;;;;;;;;1042545;28;3711;-48
2022/06/23 04:00:34;;;;;;;;;;;;;;;;;;1043233;28;4188;-50
2022/06/23 04:01:11;;;;;;;;;;;;;;;;;;1043353;28;3841;-49
2022/06/23 04:01:51;;;;;;;;;;;;;;;;;;1037162;28;2696;-49
2022/06/23 04:02:30;;;;;;;;;;;;;;;;;;1037627;28;3636;-52
2022/06/23 04:03:22;;;;;;;;;;;;;;;;;;1036331;28;4557;-51
2022/06/23 04:03:57;;;;;;;;;;;;;;;;;;1037836;28;2666;-49
2022/06/23 04:04:46;;;;;;;;;;;;;;;;;;1037269;28;3770;-49
2022/06/23 04:05:22;;;;;;;;;;;;;;;;;;1036639;28;3902;-52
2022/06/23 04:05:55;;;;;;;;;;;;;;;;;;1035839;28;2723;-50
2022/06/23 04:06:41;;;;;;;;;;;;;;;;;;1044162;28;3728;-48
2022/06/23 04:07:32;;;;;;;;;;;;;;;;;;1044905;28;4374;-49
2022/06/23 04:08:03;;;;;;;;;;;;;;;;;;1043345;28;4421;-50
2022/06/23 04:08:46;;;;;;;;;;;;;;;;;;1037708;28;1589;-50
2022/06/23 04:09:21;;;;;;;;;;;;;;;;;;1042720;28;4388;-51
2022/06/23 04:09:51;;;;;;;;;;;;;;;;;;1043802;28;2581;-52
2022/06/23 04:10:42;;;;;;;;;;;;;;;;;;1044702;28;3821;-49
2022/06/23 04:12:14;;;;;;;;;;;;;;;;;;1035859;28;4440;-51
2022/06/23 04:12:46;;;;;;;;;;;;;;;;;;1038184;28;1829;-47
2022/06/23 04:13:20;;;;;;;;;;;;;;;;;;1037142;28;3880;-50
2022/06/23 04:13:53;;;;;;;;;;;;;;;;;;1037352;28;3613;-49
2022/06/23 04:14:28;;;;;;;;;;;;;;;;;;1037221;28;3811;-48
2022/06/23 04:15:06;;;;;;;;;;;;;;;;;;1035467;28;4340;-50
2022/06/23 04:15:38;;;;;;;;;;;;;;;;;;1037071;28;3130;-51
2022/06/23 04:16:09;;;;;;;;;;;;;;;;;;1037810;28;4044;-49
2022/06/23 04:16:40;;;;;;;;;;;;;;;;;;1040922;28;1863;-51
2022/06/23 04:17:13;;;;;;;;;;;;;;;;;;1039967;28;3764;-47
2022/06/23 04:18:09;;;;;;;;;;;;;;;;;;1041711;28;1933;-50
2022/06/23 04:18:43;;;;;;;;;;;;;;;;;;1032207;28;4524;-47
2022/06/23 04:19:19;;;;;;;;;;;;;;;;;;1034881;28;3762;-50
2022/06/23 04:19:58;;;;;;;;;;;;;;;;;;1037538;28;2895;-50
2022/06/23 04:20:37;;;;;;;;;;;;;;;;;;1035203;28;3705;-48
2022/06/23 04:21:09;;;;;;;;;;;;;;;;;;1035580;28;4587;-51
2022/06/23 04:21:43;;;;;;;;;;;;;;;;;;1044917;28;1756;-48
2022/06/23 04:22:20;;;;;;;;;;;;;;;;;;1041016;28;3905;-50
2022/06/23 04:22:53;;;;;;;;;;;;;;;;;;1040800;28;3031;-50
2022/06/23 04:23:30;;;;;;;;;;;;;;;;;;1036536;28;4037;-49
2022/06/23 04:24:02;;;;;;;;;;;;;;;;;;1033966;28;4144;-49
2022/06/23 04:24:34;;;;;;;;;;;;;;;;;;1037130;28;2903;-46
2022/06/23 04:25:06;;;;;;;;;;;;;;;;;;1036965;28;3827;-48
2022/06/23 04:25:39;;;;;;;;;;;;;;;;;;1033989;28;3773;-50
2022/06/23 04:26:21;;;;;;;;;;;;;;;;;;1034954;28;4429;-51
2022/06/23 04:26:54;;;;;;;;;;;;;;;;;;1037406;28;1926;-51